sensor_id;sensor_type;location;lat;lon;timestamp;P1;durP1;ratioP1;P2;durP2;ratioP2
33160;SDS011;19522;45.656;11.302;2023-02-15T00:00:11;88.95;;;44.60;;
33160;SDS011;19522;45.656;11.302;2023-02-15T00:02:37;82.88;;;43.00;;
33160;SDS011;19522;45.656;11.302;2023-02-15T00:05:03;80.60;;;43.63;;
33160;SDS011;19522;45.656;11.302;2023-02-15T00:07:29;61.72;;;35.28;;
33160;SDS011;19522;45.656;11.302;2023-02-15T00:09:54;55.53;;;31.90;;
33160;SDS011;19522;45.656;11.302;2023-02-15T00:12:20;65.85;;;35.47;;
33160;SDS011;19522;45.656;11.302;2023-02-15T00:14:45;53.38;;;32.72;;
33160;SDS011;19522;45.656;11.302;2023-02-15T00:17:11;54.05;;;30.35;;
33160;SDS011;19522;45.656;11.302;2023-02-15T00:19:36;52.13;;;30.20;;
33160;SDS011;19522;45.656;11.302;2023-02-15T00:22:02;51.00;;;29.08;;
33160;SDS011;19522;45.656;11.302;2023-02-15T00:24:27;57.08;;;32.00;;
33160;SDS011;19522;45.656;11.302;2023-02-15T00:26:53;57.60;;;31.30;;
33160;SDS011;19522;45.656;11.302;2023-02-15T00:29:19;66.28;;;34.13;;
33160;SDS011;19522;45.656;11.302;2023-02-15T00:31:45;73.88;;;40.45;;
33160;SDS011;19522;45.656;11.302;2023-02-15T00:34:21;67.03;;;36.55;;
33160;SDS011;19522;45.656;11.302;2023-02-15T00:36:48;60.70;;;34.75;;
33160;SDS011;19522;45.656;11.302;2023-02-15T00:39:14;53.22;;;29.05;;
33160;SDS011;19522;45.656;11.302;2023-02-15T00:41:41;45.97;;;26.85;;
33160;SDS011;19522;45.656;11.302;2023-02-15T00:44:07;47.28;;;26.92;;
33160;SDS011;19522;45.656;11.302;2023-02-15T00:46:33;45.78;;;25.90;;
33160;SDS011;19522;45.656;11.302;2023-02-15T00:48:58;41.35;;;24.02;;
33160;SDS011;19522;45.656;11.302;2023-02-15T00:51:24;41.65;;;23.85;;
33160;SDS011;19522;45.656;11.302;2023-02-15T00:53:50;45.47;;;24.70;;
33160;SDS011;19522;45.656;11.302;2023-02-15T00:56:15;40.00;;;22.83;;
33160;SDS011;19522;45.656;11.302;2023-02-15T00:58:41;39.55;;;23.42;;
33160;SDS011;19522;45.656;11.302;2023-02-15T01:01:09;34.88;;;21.17;;
33160;SDS011;19522;45.656;11.302;2023-02-15T01:03:36;34.88;;;20.58;;
33160;SDS011;19522;45.656;11.302;2023-02-15T01:06:02;35.92;;;19.63;;
33160;SDS011;19522;45.656;11.302;2023-02-15T01:08:28;34.90;;;20.48;;
33160;SDS011;19522;45.656;11.302;2023-02-15T01:10:54;36.63;;;21.88;;
33160;SDS011;19522;45.656;11.302;2023-02-15T01:13:20;38.35;;;20.70;;
33160;SDS011;19522;45.656;11.302;2023-02-15T01:15:45;35.80;;;20.80;;
33160;SDS011;19522;45.656;11.302;2023-02-15T01:18:18;30.83;;;18.63;;
33160;SDS011;19522;45.656;11.302;2023-02-15T01:20:43;33.47;;;18.70;;
33160;SDS011;19522;45.656;11.302;2023-02-15T01:23:09;35.50;;;18.45;;
33160;SDS011;19522;45.656;11.302;2023-02-15T01:25:34;31.60;;;18.15;;
33160;SDS011;19522;45.656;11.302;2023-02-15T01:28:01;31.35;;;17.00;;
33160;SDS011;19522;45.656;11.302;2023-02-15T01:30:27;30.83;;;16.92;;
33160;SDS011;19522;45.656;11.302;2023-02-15T01:32:53;30.85;;;16.83;;
33160;SDS011;19522;45.656;11.302;2023-02-15T01:35:18;27.70;;;16.45;;
33160;SDS011;19522;45.656;11.302;2023-02-15T01:37:44;28.25;;;16.27;;
33160;SDS011;19522;45.656;11.302;2023-02-15T01:40:13;29.95;;;16.58;;
33160;SDS011;19522;45.656;11.302;2023-02-15T01:42:40;30.60;;;15.88;;
33160;SDS011;19522;45.656;11.302;2023-02-15T01:47:44;27.73;;;15.50;;
33160;SDS011;19522;45.656;11.302;2023-02-15T01:50:32;27.83;;;15.30;;
33160;SDS011;19522;45.656;11.302;2023-02-15T01:56:05;26.10;;;14.02;;
33160;SDS011;19522;45.656;11.302;2023-02-15T01:58:32;24.13;;;13.13;;
33160;SDS011;19522;45.656;11.302;2023-02-15T02:01:00;23.75;;;13.50;;
33160;SDS011;19522;45.656;11.302;2023-02-15T02:06:15;21.73;;;13.02;;
33160;SDS011;19522;45.656;11.302;2023-02-15T02:08:41;23.85;;;13.95;;
33160;SDS011;19522;45.656;11.302;2023-02-15T02:11:14;24.67;;;13.20;;
33160;SDS011;19522;45.656;11.302;2023-02-15T02:13:40;22.30;;;12.48;;
33160;SDS011;19522;45.656;11.302;2023-02-15T02:21:53;23.52;;;12.88;;
33160;SDS011;19522;45.656;11.302;2023-02-15T02:36:15;23.67;;;11.73;;
33160;SDS011;19522;45.656;11.302;2023-02-15T02:43:59;18.67;;;10.85;;
33160;SDS011;19522;45.656;11.302;2023-02-15T02:49:01;18.58;;;11.50;;
33160;SDS011;19522;45.656;11.302;2023-02-15T02:51:26;17.67;;;10.85;;
33160;SDS011;19522;45.656;11.302;2023-02-15T02:53:53;18.60;;;11.07;;
33160;SDS011;19522;45.656;11.302;2023-02-15T02:59:12;19.33;;;10.80;;
33160;SDS011;19522;45.656;11.302;2023-02-15T03:01:57;19.05;;;10.80;;
33160;SDS011;19522;45.656;11.302;2023-02-15T03:04:37;19.60;;;10.68;;
33160;SDS011;19522;45.656;11.302;2023-02-15T03:07:07;22.88;;;11.13;;
33160;SDS011;19522;45.656;11.302;2023-02-15T03:09:37;17.48;;;10.05;;
33160;SDS011;19522;45.656;11.302;2023-02-15T03:12:11;20.58;;;10.63;;
33160;SDS011;19522;45.656;11.302;2023-02-15T03:14:42;18.67;;;10.75;;
33160;SDS011;19522;45.656;11.302;2023-02-15T03:17:11;16.95;;;10.70;;
33160;SDS011;19522;45.656;11.302;2023-02-15T03:19:38;18.80;;;10.45;;
33160;SDS011;19522;45.656;11.302;2023-02-15T03:22:08;18.70;;;10.27;;
33160;SDS011;19522;45.656;11.302;2023-02-15T03:27:33;16.50;;;9.82;;
33160;SDS011;19522;45.656;11.302;2023-02-15T03:30:05;19.80;;;10.88;;
33160;SDS011;19522;45.656;11.302;2023-02-15T03:32:32;18.75;;;9.63;;
33160;SDS011;19522;45.656;11.302;2023-02-15T03:34:59;17.50;;;9.85;;
33160;SDS011;19522;45.656;11.302;2023-02-15T03:37:41;16.92;;;10.13;;
33160;SDS011;19522;45.656;11.302;2023-02-15T03:40:31;18.30;;;9.60;;
33160;SDS011;19522;45.656;11.302;2023-02-15T03:46:07;17.58;;;9.43;;
33160;SDS011;19522;45.656;11.302;2023-02-15T03:48:43;20.13;;;10.07;;
33160;SDS011;19522;45.656;11.302;2023-02-15T03:51:20;19.08;;;9.73;;
33160;SDS011;19522;45.656;11.302;2023-02-15T03:54:21;16.13;;;8.73;;
33160;SDS011;19522;45.656;11.302;2023-02-15T03:57:07;15.57;;;10.05;;
33160;SDS011;19522;45.656;11.302;2023-02-15T03:59:56;17.48;;;9.93;;
33160;SDS011;19522;45.656;11.302;2023-02-15T04:05:24;16.95;;;8.65;;
33160;SDS011;19522;45.656;11.302;2023-02-15T04:07:50;18.02;;;9.60;;
33160;SDS011;19522;45.656;11.302;2023-02-15T04:10:15;14.20;;;9.05;;
33160;SDS011;19522;45.656;11.302;2023-02-15T04:13:00;13.30;;;8.52;;
33160;SDS011;19522;45.656;11.302;2023-02-15T04:15:25;17.17;;;9.48;;
33160;SDS011;19522;45.656;11.302;2023-02-15T04:18:20;15.70;;;9.20;;
33160;SDS011;19522;45.656;11.302;2023-02-15T04:20:45;17.02;;;10.38;;
33160;SDS011;19522;45.656;11.302;2023-02-15T04:23:30;18.48;;;8.93;;
33160;SDS011;19522;45.656;11.302;2023-02-15T04:26:16;16.23;;;8.77;;
33160;SDS011;19522;45.656;11.302;2023-02-15T04:28:41;15.35;;;8.80;;
33160;SDS011;19522;45.656;11.302;2023-02-15T04:31:07;13.88;;;7.68;;
33160;SDS011;19522;45.656;11.302;2023-02-15T04:33:32;14.75;;;8.38;;
33160;SDS011;19522;45.656;11.302;2023-02-15T04:35:58;13.52;;;8.02;;
33160;SDS011;19522;45.656;11.302;2023-02-15T04:38:23;13.07;;;7.65;;
33160;SDS011;19522;45.656;11.302;2023-02-15T04:40:49;17.70;;;8.70;;
33160;SDS011;19522;45.656;11.302;2023-02-15T04:43:16;13.98;;;9.10;;
33160;SDS011;19522;45.656;11.302;2023-02-15T04:45:47;17.17;;;8.70;;
33160;SDS011;19522;45.656;11.302;2023-02-15T04:48:14;15.23;;;8.90;;
33160;SDS011;19522;45.656;11.302;2023-02-15T04:50:39;13.27;;;7.63;;
33160;SDS011;19522;45.656;11.302;2023-02-15T04:53:05;14.20;;;8.63;;
33160;SDS011;19522;45.656;11.302;2023-02-15T04:55:30;15.13;;;7.93;;
33160;SDS011;19522;45.656;11.302;2023-02-15T04:57:55;15.63;;;8.52;;
33160;SDS011;19522;45.656;11.302;2023-02-15T05:00:21;15.80;;;8.88;;
33160;SDS011;19522;45.656;11.302;2023-02-15T05:02:47;15.75;;;9.35;;
33160;SDS011;19522;45.656;11.302;2023-02-15T05:05:12;15.60;;;8.38;;
33160;SDS011;19522;45.656;11.302;2023-02-15T05:07:40;13.98;;;8.77;;
33160;SDS011;19522;45.656;11.302;2023-02-15T05:10:06;15.23;;;8.32;;
33160;SDS011;19522;45.656;11.302;2023-02-15T05:12:32;15.68;;;8.40;;
33160;SDS011;19522;45.656;11.302;2023-02-15T05:14:57;17.20;;;9.02;;
33160;SDS011;19522;45.656;11.302;2023-02-15T05:17:22;16.40;;;9.35;;
33160;SDS011;19522;45.656;11.302;2023-02-15T05:19:48;17.13;;;9.20;;
33160;SDS011;19522;45.656;11.302;2023-02-15T05:22:14;15.52;;;9.90;;
33160;SDS011;19522;45.656;11.302;2023-02-15T05:24:39;14.35;;;9.35;;
33160;SDS011;19522;45.656;11.302;2023-02-15T05:27:23;14.57;;;8.63;;
33160;SDS011;19522;45.656;11.302;2023-02-15T05:30:09;16.02;;;8.50;;
33160;SDS011;19522;45.656;11.302;2023-02-15T05:32:37;17.90;;;10.00;;
33160;SDS011;19522;45.656;11.302;2023-02-15T05:35:04;16.48;;;9.68;;
33160;SDS011;19522;45.656;11.302;2023-02-15T05:37:30;17.55;;;10.43;;
33160;SDS011;19522;45.656;11.302;2023-02-15T05:39:55;17.50;;;10.98;;
33160;SDS011;19522;45.656;11.302;2023-02-15T05:42:21;17.67;;;10.30;;
33160;SDS011;19522;45.656;11.302;2023-02-15T05:44:46;15.88;;;9.52;;
33160;SDS011;19522;45.656;11.302;2023-02-15T05:47:12;15.63;;;8.68;;
33160;SDS011;19522;45.656;11.302;2023-02-15T05:49:37;17.15;;;9.43;;
33160;SDS011;19522;45.656;11.302;2023-02-15T05:52:03;15.10;;;9.40;;
33160;SDS011;19522;45.656;11.302;2023-02-15T05:54:28;18.00;;;10.35;;
33160;SDS011;19522;45.656;11.302;2023-02-15T05:56:54;20.42;;;9.93;;
33160;SDS011;19522;45.656;11.302;2023-02-15T05:59:19;16.73;;;8.65;;
33160;SDS011;19522;45.656;11.302;2023-02-15T06:01:45;17.33;;;9.93;;
33160;SDS011;19522;45.656;11.302;2023-02-15T06:04:10;17.38;;;9.98;;
33160;SDS011;19522;45.656;11.302;2023-02-15T06:06:36;19.42;;;11.07;;
33160;SDS011;19522;45.656;11.302;2023-02-15T06:09:01;17.23;;;11.80;;
33160;SDS011;19522;45.656;11.302;2023-02-15T06:11:27;19.63;;;12.10;;
33160;SDS011;19522;45.656;11.302;2023-02-15T06:13:52;18.88;;;11.48;;
33160;SDS011;19522;45.656;11.302;2023-02-15T06:16:18;21.02;;;13.27;;
33160;SDS011;19522;45.656;11.302;2023-02-15T06:18:43;16.98;;;11.10;;
33160;SDS011;19522;45.656;11.302;2023-02-15T06:21:09;18.23;;;11.27;;
33160;SDS011;19522;45.656;11.302;2023-02-15T06:23:34;23.67;;;13.95;;
33160;SDS011;19522;45.656;11.302;2023-02-15T06:26:00;22.60;;;13.70;;
33160;SDS011;19522;45.656;11.302;2023-02-15T06:28:25;20.77;;;11.95;;
33160;SDS011;19522;45.656;11.302;2023-02-15T06:30:51;18.75;;;11.35;;
33160;SDS011;19522;45.656;11.302;2023-02-15T06:33:17;22.27;;;12.48;;
33160;SDS011;19522;45.656;11.302;2023-02-15T06:35:42;25.42;;;13.48;;
33160;SDS011;19522;45.656;11.302;2023-02-15T06:38:08;19.95;;;12.85;;
33160;SDS011;19522;45.656;11.302;2023-02-15T06:40:34;18.83;;;12.35;;
33160;SDS011;19522;45.656;11.302;2023-02-15T06:42:59;19.67;;;12.65;;
33160;SDS011;19522;45.656;11.302;2023-02-15T06:45:24;18.38;;;12.52;;
33160;SDS011;19522;45.656;11.302;2023-02-15T06:47:50;19.10;;;12.07;;
33160;SDS011;19522;45.656;11.302;2023-02-15T06:50:15;19.77;;;12.70;;
33160;SDS011;19522;45.656;11.302;2023-02-15T06:52:41;22.80;;;13.25;;
33160;SDS011;19522;45.656;11.302;2023-02-15T06:55:06;19.42;;;11.82;;
33160;SDS011;19522;45.656;11.302;2023-02-15T06:57:32;22.08;;;12.35;;
33160;SDS011;19522;45.656;11.302;2023-02-15T06:59:58;21.02;;;12.32;;
33160;SDS011;19522;45.656;11.302;2023-02-15T07:02:24;17.13;;;10.68;;
33160;SDS011;19522;45.656;11.302;2023-02-15T07:04:49;17.88;;;11.40;;
33160;SDS011;19522;45.656;11.302;2023-02-15T07:07:15;18.70;;;11.38;;
33160;SDS011;19522;45.656;11.302;2023-02-15T07:09:40;22.67;;;12.32;;
33160;SDS011;19522;45.656;11.302;2023-02-15T07:12:06;23.92;;;12.65;;
33160;SDS011;19522;45.656;11.302;2023-02-15T07:14:50;27.02;;;13.30;;
33160;SDS011;19522;45.656;11.302;2023-02-15T07:17:17;43.75;;;26.10;;
33160;SDS011;19522;45.656;11.302;2023-02-15T07:19:42;73.03;;;45.30;;
33160;SDS011;19522;45.656;11.302;2023-02-15T07:22:08;72.30;;;47.13;;
33160;SDS011;19522;45.656;11.302;2023-02-15T07:24:37;41.25;;;25.48;;
33160;SDS011;19522;45.656;11.302;2023-02-15T07:27:02;36.75;;;19.13;;
33160;SDS011;19522;45.656;11.302;2023-02-15T07:29:28;28.23;;;17.25;;
33160;SDS011;19522;45.656;11.302;2023-02-15T07:31:53;33.65;;;16.05;;
33160;SDS011;19522;45.656;11.302;2023-02-15T07:34:19;21.75;;;12.15;;
33160;SDS011;19522;45.656;11.302;2023-02-15T07:36:45;21.83;;;11.25;;
33160;SDS011;19522;45.656;11.302;2023-02-15T07:39:10;17.70;;;10.68;;
33160;SDS011;19522;45.656;11.302;2023-02-15T07:41:36;19.25;;;11.02;;
33160;SDS011;19522;45.656;11.302;2023-02-15T07:44:01;18.80;;;11.23;;
33160;SDS011;19522;45.656;11.302;2023-02-15T07:46:27;19.05;;;10.65;;
33160;SDS011;19522;45.656;11.302;2023-02-15T07:48:52;21.23;;;11.70;;
33160;SDS011;19522;45.656;11.302;2023-02-15T07:51:18;19.77;;;11.98;;
33160;SDS011;19522;45.656;11.302;2023-02-15T07:53:43;21.00;;;11.32;;
33160;SDS011;19522;45.656;11.302;2023-02-15T07:56:10;16.92;;;10.20;;
33160;SDS011;19522;45.656;11.302;2023-02-15T07:58:36;19.38;;;10.93;;
33160;SDS011;19522;45.656;11.302;2023-02-15T08:01:18;15.98;;;10.23;;
33160;SDS011;19522;45.656;11.302;2023-02-15T08:03:44;21.23;;;11.65;;
33160;SDS011;19522;45.656;11.302;2023-02-15T08:06:10;18.08;;;11.00;;
33160;SDS011;19522;45.656;11.302;2023-02-15T08:08:38;20.73;;;12.50;;
33160;SDS011;19522;45.656;11.302;2023-02-15T08:13:56;18.33;;;12.27;;
33160;SDS011;19522;45.656;11.302;2023-02-15T08:18:55;28.35;;;15.80;;
33160;SDS011;19522;45.656;11.302;2023-02-15T08:21:21;24.80;;;15.70;;
33160;SDS011;19522;45.656;11.302;2023-02-15T08:23:47;23.73;;;15.07;;
33160;SDS011;19522;45.656;11.302;2023-02-15T08:26:13;19.88;;;14.10;;
33160;SDS011;19522;45.656;11.302;2023-02-15T08:28:40;21.38;;;13.90;;
33160;SDS011;19522;45.656;11.302;2023-02-15T08:33:32;18.20;;;13.02;;
33160;SDS011;19522;45.656;11.302;2023-02-15T08:36:05;20.58;;;12.57;;
33160;SDS011;19522;45.656;11.302;2023-02-15T08:43:44;18.30;;;11.45;;
33160;SDS011;19522;45.656;11.302;2023-02-15T08:46:16;18.83;;;11.85;;
33160;SDS011;19522;45.656;11.302;2023-02-15T08:48:41;17.13;;;11.70;;
33160;SDS011;19522;45.656;11.302;2023-02-15T08:51:12;21.77;;;12.75;;
33160;SDS011;19522;45.656;11.302;2023-02-15T08:53:40;21.13;;;12.05;;
33160;SDS011;19522;45.656;11.302;2023-02-15T08:56:07;19.90;;;12.05;;
33160;SDS011;19522;45.656;11.302;2023-02-15T08:58:33;21.52;;;13.27;;
33160;SDS011;19522;45.656;11.302;2023-02-15T09:00:59;20.85;;;13.15;;
33160;SDS011;19522;45.656;11.302;2023-02-15T09:03:27;20.60;;;12.70;;
33160;SDS011;19522;45.656;11.302;2023-02-15T09:05:57;23.08;;;12.50;;
33160;SDS011;19522;45.656;11.302;2023-02-15T09:08:24;20.17;;;11.65;;
33160;SDS011;19522;45.656;11.302;2023-02-15T09:10:50;19.35;;;11.70;;
33160;SDS011;19522;45.656;11.302;2023-02-15T09:13:15;19.17;;;12.52;;
33160;SDS011;19522;45.656;11.302;2023-02-15T09:15:41;29.85;;;18.20;;
33160;SDS011;19522;45.656;11.302;2023-02-15T09:18:06;28.48;;;17.50;;
33160;SDS011;19522;45.656;11.302;2023-02-15T09:20:35;25.70;;;15.50;;
33160;SDS011;19522;45.656;11.302;2023-02-15T09:23:01;25.02;;;13.48;;
33160;SDS011;19522;45.656;11.302;2023-02-15T09:25:27;24.25;;;13.82;;
33160;SDS011;19522;45.656;11.302;2023-02-15T09:27:53;26.42;;;14.05;;
33160;SDS011;19522;45.656;11.302;2023-02-15T09:30:18;24.67;;;14.80;;
33160;SDS011;19522;45.656;11.302;2023-02-15T09:32:44;21.75;;;12.70;;
33160;SDS011;19522;45.656;11.302;2023-02-15T09:35:11;17.95;;;11.45;;
33160;SDS011;19522;45.656;11.302;2023-02-15T09:37:37;20.00;;;11.23;;
33160;SDS011;19522;45.656;11.302;2023-02-15T09:40:03;20.65;;;11.90;;
33160;SDS011;19522;45.656;11.302;2023-02-15T09:45:42;19.38;;;11.75;;
33160;SDS011;19522;45.656;11.302;2023-02-15T09:48:39;26.70;;;13.30;;
33160;SDS011;19522;45.656;11.302;2023-02-15T09:56:40;25.27;;;14.93;;
33160;SDS011;19522;45.656;11.302;2023-02-15T10:15:52;40.72;;;22.75;;
33160;SDS011;19522;45.656;11.302;2023-02-15T10:26:48;35.65;;;20.35;;
33160;SDS011;19522;45.656;11.302;2023-02-15T10:32:05;30.70;;;17.73;;
33160;SDS011;19522;45.656;11.302;2023-02-15T10:34:51;30.48;;;18.05;;
33160;SDS011;19522;45.656;11.302;2023-02-15T10:37:27;32.85;;;19.17;;
33160;SDS011;19522;45.656;11.302;2023-02-15T10:48:04;36.33;;;19.05;;
33160;SDS011;19522;45.656;11.302;2023-02-15T10:59:18;32.97;;;19.27;;
33160;SDS011;19522;45.656;11.302;2023-02-15T11:02:04;35.15;;;19.35;;
33160;SDS011;19522;45.656;11.302;2023-02-15T11:07:33;36.05;;;21.00;;
33160;SDS011;19522;45.656;11.302;2023-02-15T11:12:51;37.60;;;21.65;;
33160;SDS011;19522;45.656;11.302;2023-02-15T11:15:34;39.20;;;22.17;;
33160;SDS011;19522;45.656;11.302;2023-02-15T11:20:55;40.38;;;22.85;;
33160;SDS011;19522;45.656;11.302;2023-02-15T11:23:21;39.83;;;23.48;;
33160;SDS011;19522;45.656;11.302;2023-02-15T11:26:04;39.92;;;23.27;;
33160;SDS011;19522;45.656;11.302;2023-02-15T11:28:38;43.20;;;22.88;;
33160;SDS011;19522;45.656;11.302;2023-02-15T11:31:15;42.72;;;23.80;;
33160;SDS011;19522;45.656;11.302;2023-02-15T11:33:44;43.47;;;24.75;;
33160;SDS011;19522;45.656;11.302;2023-02-15T11:36:16;42.08;;;25.02;;
33160;SDS011;19522;45.656;11.302;2023-02-15T11:38:42;45.67;;;26.00;;
33160;SDS011;19522;45.656;11.302;2023-02-15T11:41:13;52.95;;;26.73;;
33160;SDS011;19522;45.656;11.302;2023-02-15T11:46:31;47.15;;;29.58;;
33160;SDS011;19522;45.656;11.302;2023-02-15T11:48:56;49.63;;;28.27;;
33160;SDS011;19522;45.656;11.302;2023-02-15T11:51:23;51.65;;;29.30;;
33160;SDS011;19522;45.656;11.302;2023-02-15T11:53:52;57.78;;;32.13;;
33160;SDS011;19522;45.656;11.302;2023-02-15T11:56:26;49.40;;;29.98;;
33160;SDS011;19522;45.656;11.302;2023-02-15T12:01:32;56.42;;;31.08;;
33160;SDS011;19522;45.656;11.302;2023-02-15T12:09:52;53.35;;;30.00;;
33160;SDS011;19522;45.656;11.302;2023-02-15T12:12:33;53.88;;;30.85;;
33160;SDS011;19522;45.656;11.302;2023-02-15T12:15:08;57.97;;;32.58;;
33160;SDS011;19522;45.656;11.302;2023-02-15T12:17:42;53.10;;;31.80;;
33160;SDS011;19522;45.656;11.302;2023-02-15T12:22:54;56.80;;;30.92;;
33160;SDS011;19522;45.656;11.302;2023-02-15T12:30:56;53.45;;;29.15;;
33160;SDS011;19522;45.656;11.302;2023-02-15T12:33:30;53.70;;;29.90;;
33160;SDS011;19522;45.656;11.302;2023-02-15T12:38:40;48.75;;;27.23;;
33160;SDS011;19522;45.656;11.302;2023-02-15T12:41:26;47.03;;;26.63;;
33160;SDS011;19522;45.656;11.302;2023-02-15T12:44:07;44.38;;;23.33;;
33160;SDS011;19522;45.656;11.302;2023-02-15T12:46:58;37.05;;;22.20;;
33160;SDS011;19522;45.656;11.302;2023-02-15T12:49:33;39.88;;;22.50;;
33160;SDS011;19522;45.656;11.302;2023-02-15T12:54:48;38.80;;;23.07;;
33160;SDS011;19522;45.656;11.302;2023-02-15T12:59:55;40.95;;;23.45;;
33160;SDS011;19522;45.656;11.302;2023-02-15T13:02:53;40.20;;;23.58;;
33160;SDS011;19522;45.656;11.302;2023-02-15T13:05:30;38.40;;;20.80;;
33160;SDS011;19522;45.656;11.302;2023-02-15T13:08:02;38.88;;;22.75;;
33160;SDS011;19522;45.656;11.302;2023-02-15T13:11:07;42.25;;;23.42;;
33160;SDS011;19522;45.656;11.302;2023-02-15T13:13:58;44.08;;;23.77;;
33160;SDS011;19522;45.656;11.302;2023-02-15T13:16:42;43.22;;;23.42;;
33160;SDS011;19522;45.656;11.302;2023-02-15T13:19:17;42.67;;;26.00;;
33160;SDS011;19522;45.656;11.302;2023-02-15T13:26:54;46.38;;;26.50;;
33160;SDS011;19522;45.656;11.302;2023-02-15T13:31:53;42.80;;;25.65;;
33160;SDS011;19522;45.656;11.302;2023-02-15T13:34:33;47.03;;;26.15;;
33160;SDS011;19522;45.656;11.302;2023-02-15T13:40:01;49.67;;;26.77;;
33160;SDS011;19522;45.656;11.302;2023-02-15T13:42:37;48.47;;;27.13;;
33160;SDS011;19522;45.656;11.302;2023-02-15T14:01:44;48.65;;;27.60;;
33160;SDS011;19522;45.656;11.302;2023-02-15T14:15:50;45.63;;;26.33;;
33160;SDS011;19522;45.656;11.302;2023-02-15T14:21:31;50.38;;;28.98;;
33160;SDS011;19522;45.656;11.302;2023-02-15T14:29:48;54.00;;;28.90;;
33160;SDS011;19522;45.656;11.302;2023-02-15T14:32:40;54.58;;;30.25;;
33160;SDS011;19522;45.656;11.302;2023-02-15T14:35:26;52.53;;;30.90;;
33160;SDS011;19522;45.656;11.302;2023-02-15T14:46:31;49.67;;;29.27;;
33160;SDS011;19522;45.656;11.302;2023-02-15T14:56:45;64.43;;;34.35;;
33160;SDS011;19522;45.656;11.302;2023-02-15T15:04:56;63.45;;;34.50;;
33160;SDS011;19522;45.656;11.302;2023-02-15T15:07:38;60.60;;;34.28;;
33160;SDS011;19522;45.656;11.302;2023-02-15T15:12:42;68.50;;;37.00;;
33160;SDS011;19522;45.656;11.302;2023-02-15T15:15:51;62.70;;;36.25;;
33160;SDS011;19522;45.656;11.302;2023-02-15T15:18:09;63.92;;;36.80;;
33160;SDS011;19522;45.656;11.302;2023-02-15T15:20:48;65.43;;;36.90;;
33160;SDS011;19522;45.656;11.302;2023-02-15T15:28:07;68.35;;;38.78;;
33160;SDS011;19522;45.656;11.302;2023-02-15T15:33:01;70.93;;;39.58;;
33160;SDS011;19522;45.656;11.302;2023-02-15T15:36:07;70.40;;;38.05;;
33160;SDS011;19522;45.656;11.302;2023-02-15T15:41:41;72.68;;;39.35;;
33160;SDS011;19522;45.656;11.302;2023-02-15T15:44:19;73.60;;;42.22;;
33160;SDS011;19522;45.656;11.302;2023-02-15T15:49:42;66.35;;;40.20;;
33160;SDS011;19522;45.656;11.302;2023-02-15T15:52:12;71.30;;;38.92;;
33160;SDS011;19522;45.656;11.302;2023-02-15T15:54:42;69.30;;;41.88;;
33160;SDS011;19522;45.656;11.302;2023-02-15T15:57:19;72.68;;;42.15;;
33160;SDS011;19522;45.656;11.302;2023-02-15T15:59:57;77.28;;;43.15;;
33160;SDS011;19522;45.656;11.302;2023-02-15T16:02:26;75.82;;;42.28;;
33160;SDS011;19522;45.656;11.302;2023-02-15T16:04:52;74.93;;;41.88;;
33160;SDS011;19522;45.656;11.302;2023-02-15T16:10:03;70.05;;;40.83;;
33160;SDS011;19522;45.656;11.302;2023-02-15T16:12:34;68.40;;;41.65;;
33160;SDS011;19522;45.656;11.302;2023-02-15T16:15:19;80.43;;;48.65;;
33160;SDS011;19522;45.656;11.302;2023-02-15T16:17:47;72.82;;;43.22;;
33160;SDS011;19522;45.656;11.302;2023-02-15T16:20:20;53.97;;;33.15;;
33160;SDS011;19522;45.656;11.302;2023-02-15T16:22:49;59.13;;;32.40;;
33160;SDS011;19522;45.656;11.302;2023-02-15T16:25:28;53.43;;;32.07;;
33160;SDS011;19522;45.656;11.302;2023-02-15T16:27:55;43.25;;;23.92;;
33160;SDS011;19522;45.656;11.302;2023-02-15T16:32:52;51.47;;;31.67;;
33160;SDS011;19522;45.656;11.302;2023-02-15T16:35:29;54.92;;;32.72;;
33160;SDS011;19522;45.656;11.302;2023-02-15T16:37:55;57.33;;;32.90;;
33160;SDS011;19522;45.656;11.302;2023-02-15T16:42:50;62.92;;;34.53;;
33160;SDS011;19522;45.656;11.302;2023-02-15T16:45:19;84.15;;;47.50;;
33160;SDS011;19522;45.656;11.302;2023-02-15T16:47:49;71.05;;;40.85;;
33160;SDS011;19522;45.656;11.302;2023-02-15T16:50:19;62.00;;;33.63;;
33160;SDS011;19522;45.656;11.302;2023-02-15T16:52:48;57.70;;;34.75;;
33160;SDS011;19522;45.656;11.302;2023-02-15T16:55:20;60.40;;;35.13;;
33160;SDS011;19522;45.656;11.302;2023-02-15T16:57:48;46.00;;;26.27;;
33160;SDS011;19522;45.656;11.302;2023-02-15T17:00:21;65.60;;;39.53;;
33160;SDS011;19522;45.656;11.302;2023-02-15T17:03:08;61.60;;;36.78;;
33160;SDS011;19522;45.656;11.302;2023-02-15T17:05:47;65.45;;;38.83;;
33160;SDS011;19522;45.656;11.302;2023-02-15T17:10:45;72.10;;;40.97;;
33160;SDS011;19522;45.656;11.302;2023-02-15T17:13:28;70.78;;;40.45;;
33160;SDS011;19522;45.656;11.302;2023-02-15T17:21:11;64.13;;;39.00;;
33160;SDS011;19522;45.656;11.302;2023-02-15T17:23:57;63.20;;;39.38;;
33160;SDS011;19522;45.656;11.302;2023-02-15T17:26:34;68.40;;;39.70;;
33160;SDS011;19522;45.656;11.302;2023-02-15T17:31:46;69.07;;;40.72;;
33160;SDS011;19522;45.656;11.302;2023-02-15T17:40:07;72.43;;;41.35;;
33160;SDS011;19522;45.656;11.302;2023-02-15T17:42:43;71.70;;;41.20;;
33160;SDS011;19522;45.656;11.302;2023-02-15T17:45:09;65.60;;;41.60;;
33160;SDS011;19522;45.656;11.302;2023-02-15T17:47:34;76.32;;;44.25;;
33160;SDS011;19522;45.656;11.302;2023-02-15T17:50:01;77.90;;;43.10;;
33160;SDS011;19522;45.656;11.302;2023-02-15T17:52:29;73.50;;;43.88;;
33160;SDS011;19522;45.656;11.302;2023-02-15T17:54:55;86.50;;;47.13;;
33160;SDS011;19522;45.656;11.302;2023-02-15T17:57:39;88.00;;;46.80;;
33160;SDS011;19522;45.656;11.302;2023-02-15T18:00:05;70.00;;;42.33;;
33160;SDS011;19522;45.656;11.302;2023-02-15T18:02:50;75.93;;;43.42;;
33160;SDS011;19522;45.656;11.302;2023-02-15T18:05:34;78.15;;;42.80;;
33160;SDS011;19522;45.656;11.302;2023-02-15T18:08:18;76.63;;;42.72;;
33160;SDS011;19522;45.656;11.302;2023-02-15T18:11:08;71.03;;;41.30;;
33160;SDS011;19522;45.656;11.302;2023-02-15T18:13:53;78.32;;;44.63;;
33160;SDS011;19522;45.656;11.302;2023-02-15T18:16:22;82.60;;;46.10;;
33160;SDS011;19522;45.656;11.302;2023-02-15T18:18:50;84.88;;;50.08;;
33160;SDS011;19522;45.656;11.302;2023-02-15T18:21:16;79.57;;;48.20;;
33160;SDS011;19522;45.656;11.302;2023-02-15T18:23:42;78.40;;;44.22;;
33160;SDS011;19522;45.656;11.302;2023-02-15T18:26:09;72.78;;;43.20;;
33160;SDS011;19522;45.656;11.302;2023-02-15T18:28:41;76.55;;;44.90;;
33160;SDS011;19522;45.656;11.302;2023-02-15T18:31:06;77.28;;;45.88;;
33160;SDS011;19522;45.656;11.302;2023-02-15T18:33:39;81.85;;;45.95;;
33160;SDS011;19522;45.656;11.302;2023-02-15T18:36:12;82.65;;;47.17;;
33160;SDS011;19522;45.656;11.302;2023-02-15T18:38:52;87.82;;;47.63;;
33160;SDS011;19522;45.656;11.302;2023-02-15T18:41:19;87.35;;;49.20;;
33160;SDS011;19522;45.656;11.302;2023-02-15T18:43:46;82.43;;;47.60;;
33160;SDS011;19522;45.656;11.302;2023-02-15T18:46:13;88.13;;;47.75;;